Time;durP1;ratioP1;P1;durP2;ratioP2;P2;SDS_P1;SDS_P2;PMS_P1;PMS_P2;Temp;Humidity;BMP_temperature;BMP_pressure;BME280_temperature;BME280_humidity;BME280_pressure;Samples;Min_cycle;Max_cycle;Signal;HPM_P1;HPM_P2
2022/04/05 00:02:25;;;;;;;10.23;8.43;;;5.40;99.90;;;;;;5068736;28;20178;-68
2022/04/05 00:04:50;;;;;;;9.60;8.70;;;5.40;99.90;;;;;;5060956;28;20180;-68
2022/04/05 00:07:16;;;;;;;8.37;7.27;;;5.50;99.90;;;;;;5064846;28;20255;-68
2022/04/05 00:09:42;;;;;;;7.67;6.97;;;5.50;99.90;;;;;;5070450;28;20580;-68
2022/04/05 00:12:08;;;;;;;8.70;7.80;;;5.50;99.90;;;;;;5064011;28;20666;-68
2022/04/05 00:14:33;;;;;;;9.57;8.53;;;5.50;99.90;;;;;;5067170;28;20510;-68
2022/04/05 00:16:59;;;;;;;11.07;9.17;;;5.50;99.90;;;;;;5069735;28;20251;-68
2022/04/05 00:19:25;;;;;;;7.60;6.80;;;5.50;99.90;;;;;;5067607;28;20551;-68
2022/04/05 00:21:51;;;;;;;8.93;8.00;;;5.50;99.90;;;;;;5066360;28;20204;-68
2022/04/05 00:24:17;;;;;;;8.53;7.73;;;5.50;99.90;;;;;;5069975;28;20204;-68
2022/04/05 00:26:43;;;;;;;9.87;8.87;;;5.50;99.90;;;;;;5067155;28;20540;-68
2022/04/05 00:29:08;;;;;;;10.03;8.47;;;5.50;99.90;;;;;;5070692;28;20639;-68
2022/04/05 00:31:34;;;;;;;10.10;8.57;;;5.40;99.90;;;;;;5063767;28;20177;-68
2022/04/05 00:33:59;;;;;;;9.60;8.70;;;5.50;99.90;;;;;;5061545;28;20173;-68
2022/04/05 00:36:25;;;;;;;14.87;9.20;;;5.50;99.90;;;;;;5064277;28;20561;-68
2022/04/05 00:38:50;;;;;;;9.83;8.83;;;5.50;99.90;;;;;;5068125;28;20245;-68
2022/04/05 00:41:16;;;;;;;9.80;7.70;;;5.50;99.90;;;;;;5063382;28;20176;-68
2022/04/05 00:43:42;;;;;;;11.03;8.43;;;5.50;99.90;;;;;;5060195;28;20208;-68
2022/04/05 00:46:08;;;;;;;8.83;8.03;;;5.50;99.90;;;;;;5055648;28;20267;-68
2022/04/05 00:48:49;;;;;;;10.70;7.30;;;5.50;99.90;;;;;;5058113;28;20177;-68
2022/04/05 00:51:16;;;;;;;10.87;8.73;;;5.50;99.90;;;;;;5063357;28;20666;-67
2022/04/05 00:53:50;;;;;;;9.40;8.40;;;5.50;99.90;;;;;;5063715;28;20427;-68
2022/04/05 00:56:18;;;;;;;9.40;7.93;;;5.60;99.90;;;;;;5066328;28;20481;-68
2022/04/05 00:58:48;;;;;;;9.73;8.77;;;5.60;99.90;;;;;;5065905;28;21083;-68
2022/04/05 01:01:18;;;;;;;8.93;8.03;;;5.60;99.90;;;;;;5063610;28;20466;-68
2022/04/05 01:03:49;;;;;;;9.50;7.90;;;5.60;99.90;;;;;;5064337;28;20439;-68
2022/04/05 01:06:19;;;;;;;9.83;8.83;;;5.60;99.90;;;;;;5057378;28;20978;-68
2022/04/05 01:08:46;;;;;;;9.53;8.63;;;5.60;99.90;;;;;;5068829;28;20445;-68
2022/04/05 01:11:12;;;;;;;10.30;7.90;;;5.60;99.90;;;;;;5065745;28;20484;-69
2022/04/05 01:13:38;;;;;;;10.10;8.60;;;5.60;99.90;;;;;;5062273;28;20439;-68
2022/04/05 01:16:04;;;;;;;8.73;7.80;;;5.60;99.90;;;;;;5066440;28;20473;-68
2022/04/05 01:18:30;;;;;;;9.17;8.23;;;5.60;99.90;;;;;;5058688;28;20188;-68
2022/04/05 01:20:56;;;;;;;8.70;7.23;;;5.60;99.90;;;;;;5069593;28;20948;-68
2022/04/05 01:23:22;;;;;;;10.83;7.73;;;5.60;99.90;;;;;;5068835;28;20466;-68
2022/04/05 01:25:48;;;;;;;9.90;8.40;;;5.60;99.90;;;;;;5068659;28;20463;-68
2022/04/05 01:28:14;;;;;;;10.07;8.17;;;5.50;99.90;;;;;;5058631;28;20450;-68
2022/04/05 01:30:40;;;;;;;12.00;8.93;;;5.40;99.90;;;;;;5068783;28;20954;-68
2022/04/05 01:33:06;;;;;;;10.87;9.23;;;5.30;99.90;;;;;;5065748;28;20265;-69
2022/04/05 01:35:33;;;;;;;8.70;7.87;;;5.20;99.90;;;;;;5063661;28;20314;-68
2022/04/05 01:37:58;;;;;;;9.63;8.17;;;5.10;99.90;;;;;;5067769;28;20529;-68
2022/04/05 01:40:25;;;;;;;11.87;8.57;;;5.00;99.90;;;;;;5067180;28;20530;-68
2022/04/05 01:42:51;;;;;;;9.00;8.17;;;5.00;99.90;;;;;;5055752;28;20178;-68
2022/04/05 01:45:16;;;;;;;11.10;9.30;;;4.90;99.90;;;;;;5053848;28;20522;-68
2022/04/05 01:47:42;;;;;;;10.40;9.07;;;4.90;99.90;;;;;;5061206;28;20200;-68
2022/04/05 01:50:08;;;;;;;9.20;8.30;;;5.00;99.90;;;;;;5066373;28;20196;-68
2022/04/05 01:52:33;;;;;;;9.27;8.37;;;5.00;99.90;;;;;;5057730;28;20192;-68
2022/04/05 01:54:59;;;;;;;10.63;8.00;;;5.10;99.90;;;;;;5065171;28;20454;-68
2022/04/05 01:57:24;;;;;;;9.40;8.50;;;5.10;99.90;;;;;;5065832;28;20599;-68
2022/04/05 01:59:50;;;;;;;9.77;8.20;;;5.20;99.90;;;;;;5071458;28;20180;-68
2022/04/05 02:02:16;;;;;;;9.33;8.33;;;5.20;99.90;;;;;;5062712;28;20249;-68
2022/04/05 02:04:41;;;;;;;11.90;9.13;;;5.30;99.90;;;;;;5066801;28;20182;-68
2022/04/05 02:07:14;;;;;;;9.97;8.73;;;5.40;99.90;;;;;;5066631;28;20212;-68
2022/04/05 02:09:40;;;;;;;12.23;8.83;;;5.40;99.90;;;;;;5064490;28;20176;-68
2022/04/05 02:12:07;;;;;;;10.10;8.20;;;5.40;99.90;;;;;;5071142;28;20521;-68
2022/04/05 02:14:32;;;;;;;10.50;8.90;;;5.40;99.90;;;;;;5066978;28;20445;-68
2022/04/05 02:16:58;;;;;;;9.97;9.07;;;5.40;99.90;;;;;;5071079;28;20554;-68
2022/04/05 02:19:23;;;;;;;11.43;8.07;;;5.40;99.90;;;;;;5065383;28;20227;-68
2022/04/05 02:21:49;;;;;;;8.63;7.30;;;5.40;99.90;;;;;;5063342;28;20178;-68
2022/04/05 02:24:15;;;;;;;9.17;8.23;;;5.40;99.90;;;;;;5065111;28;20180;-68
2022/04/05 02:26:41;;;;;;;10.60;7.83;;;5.40;99.90;;;;;;5069874;28;20471;-67
2022/04/05 02:29:06;;;;;;;9.20;7.50;;;5.40;99.90;;;;;;5059648;28;20173;-68
2022/04/05 02:31:32;;;;;;;9.17;8.17;;;5.40;99.90;;;;;;5065697;28;20189;-67
2022/04/05 02:33:58;;;;;;;9.83;8.73;;;5.40;99.90;;;;;;5066800;28;20189;-68
2022/04/05 02:36:23;;;;;;;10.23;8.60;;;5.40;99.90;;;;;;5064877;28;20492;-68
2022/04/05 02:38:49;;;;;;;8.87;7.97;;;5.40;99.90;;;;;;5067732;28;20269;-67
2022/04/05 02:41:15;;;;;;;8.93;8.03;;;5.40;99.90;;;;;;5067165;28;20180;-68
2022/04/05 02:43:40;;;;;;;8.27;7.47;;;5.40;99.90;;;;;;5068877;28;20654;-68
2022/04/05 02:46:08;;;;;;;8.80;8.00;;;5.40;99.90;;;;;;5069388;28;20752;-68
2022/04/05 02:48:34;;;;;;;8.67;7.50;;;5.40;99.90;;;;;;5070043;28;20173;-68
2022/04/05 02:50:59;;;;;;;8.03;7.23;;;5.40;99.90;;;;;;5065260;28;20491;-68
2022/04/05 02:53:25;;;;;;;10.13;7.43;;;5.50;99.90;;;;;;5063418;28;20184;-68
2022/04/05 02:55:50;;;;;;;11.07;7.60;;;5.50;99.90;;;;;;5064205;28;20218;-68
2022/04/05 02:58:16;;;;;;;8.40;7.47;;;5.50;99.90;;;;;;5061852;28;20177;-68
2022/04/05 03:00:41;;;;;;;7.77;7.07;;;5.50;99.90;;;;;;5067089;28;20176;-68
2022/04/05 03:03:07;;;;;;;8.80;7.90;;;5.40;99.90;;;;;;5070172;28;20552;-68
2022/04/05 03:05:33;;;;;;;11.30;8.00;;;5.30;99.90;;;;;;5066750;28;20261;-68
2022/04/05 03:07:58;;;;;;;12.47;7.60;;;5.20;99.90;;;;;;5068485;28;20204;-68
2022/04/05 03:10:25;;;;;;;8.90;8.07;;;5.20;99.90;;;;;;5061851;28;20583;-68
2022/04/05 03:12:50;;;;;;;9.70;8.70;;;5.20;99.90;;;;;;5066360;28;20175;-68
2022/04/05 03:15:16;;;;;;;8.47;7.70;;;5.20;99.90;;;;;;5065884;28;20941;-68
2022/04/05 03:17:46;;;;;;;10.27;7.73;;;5.20;99.90;;;;;;5060290;28;20236;-68
2022/04/05 03:20:13;;;;;;;8.97;8.07;;;5.20;99.90;;;;;;5067386;28;20453;-69
2022/04/05 03:22:40;;;;;;;9.67;8.53;;;5.20;99.90;;;;;;5064656;28;20486;-68
2022/04/05 03:25:06;;;;;;;9.80;8.80;;;5.10;99.90;;;;;;5067136;28;20459;-68
2022/04/05 03:27:31;;;;;;;9.10;8.20;;;5.20;99.90;;;;;;5071547;28;20538;-68
2022/04/05 03:29:57;;;;;;;11.77;8.43;;;5.20;99.90;;;;;;5059960;28;20185;-68
2022/04/05 03:32:22;;;;;;;9.00;8.20;;;5.30;99.90;;;;;;5066088;28;20180;-68
2022/04/05 03:34:50;;;;;;;9.10;8.20;;;5.30;99.90;;;;;;5064786;28;20260;-68
2022/04/05 03:37:15;;;;;;;9.10;8.30;;;5.40;99.90;;;;;;5063569;28;20192;-69
2022/04/05 03:39:41;;;;;;;9.77;8.60;;;5.50;99.90;;;;;;5060515;28;20438;-68
2022/04/05 03:42:07;;;;;;;9.43;8.50;;;5.50;99.90;;;;;;5067127;28;20177;-68
2022/04/05 03:44:32;;;;;;;9.30;8.40;;;5.60;99.90;;;;;;5064497;28;20188;-68
2022/04/05 03:46:59;;;;;;;8.93;8.10;;;5.60;99.90;;;;;;5068170;28;20204;-69
2022/04/05 03:49:25;;;;;;;10.00;7.60;;;5.60;99.90;;;;;;5067237;28;20558;-67
2022/04/05 03:51:51;;;;;;;8.13;6.80;;;5.60;99.90;;;;;;5067495;28;20427;-69
2022/04/05 03:54:16;;;;;;;8.87;7.83;;;5.60;99.90;;;;;;5066287;28;20302;-68
2022/04/05 03:56:42;;;;;;;9.73;7.43;;;5.60;99.90;;;;;;5067372;28;20216;-70
2022/04/05 03:59:07;;;;;;;8.27;6.70;;;5.70;99.90;;;;;;5062803;28;20260;-68
2022/04/05 04:01:33;;;;;;;8.93;7.33;;;5.70;99.90;;;;;;5070090;28;20277;-69
2022/04/05 04:03:58;;;;;;;7.70;7.00;;;5.70;99.90;;;;;;5060577;28;20177;-69
2022/04/05 04:06:23;;;;;;;8.57;7.67;;;5.70;99.90;;;;;;5066629;28;20703;-69
2022/04/05 04:08:49;;;;;;;7.77;6.67;;;5.70;99.90;;;;;;5066971;28;20261;-69
2022/04/05 04:11:14;;;;;;;8.73;7.77;;;5.70;99.90;;;;;;5060143;28;20173;-69
2022/04/05 04:13:40;;;;;;;8.70;7.80;;;5.70;99.90;;;;;;5067299;28;20177;-70
2022/04/05 04:16:06;;;;;;;10.67;8.43;;;5.80;99.90;;;;;;5061906;28;20229;-69
2022/04/05 04:18:31;;;;;;;9.33;8.27;;;5.70;99.90;;;;;;5064928;28;20695;-69
2022/04/05 04:20:57;;;;;;;8.43;7.60;;;5.70;99.90;;;;;;5068399;28;20282;-68
2022/04/05 04:23:23;;;;;;;8.50;7.57;;;5.60;99.90;;;;;;5060757;28;20177;-69
2022/04/05 04:25:48;;;;;;;9.13;8.23;;;5.50;99.90;;;;;;5069393;28;20224;-69
2022/04/05 04:28:14;;;;;;;9.30;8.40;;;5.30;99.90;;;;;;5066799;28;20226;-69
2022/04/05 04:30:40;;;;;;;10.00;8.87;;;5.20;99.90;;;;;;5060966;28;20701;-68
2022/04/05 04:33:06;;;;;;;11.63;9.60;;;5.00;99.90;;;;;;5060245;28;20173;-69
2022/04/05 04:35:32;;;;;;;10.90;9.43;;;4.90;99.90;;;;;;5061771;28;20484;-69
2022/04/05 04:38:01;;;;;;;10.73;8.97;;;4.80;99.90;;;;;;5061818;28;20435;-68
2022/04/05 04:40:27;;;;;;;10.27;9.20;;;4.80;99.90;;;;;;5058694;28;20666;-67
2022/04/05 04:42:53;;;;;;;9.80;8.57;;;4.70;99.90;;;;;;5063427;28;20522;-69
2022/04/05 04:45:18;;;;;;;11.77;10.57;;;4.70;99.90;;;;;;5066540;28;20630;-67
2022/04/05 04:47:44;;;;;;;13.70;11.00;;;4.60;99.90;;;;;;5061994;28;20434;-69
2022/04/05 04:50:11;;;;;;;13.30;9.17;;;4.60;99.90;;;;;;5068958;28;20177;-68
2022/04/05 04:52:37;;;;;;;15.53;10.13;;;4.60;99.90;;;;;;5059226;28;20165;-69
2022/04/05 04:55:03;;;;;;;15.80;9.97;;;4.50;99.90;;;;;;5059704;28;20919;-69
2022/04/05 04:57:29;;;;;;;13.23;11.20;;;4.50;99.90;;;;;;5066144;28;20466;-68
2022/04/05 04:59:54;;;;;;;13.00;11.40;;;4.50;99.90;;;;;;5067086;28;20782;-68
2022/04/05 05:02:22;;;;;;;11.13;10.03;;;4.50;99.90;;;;;;5065704;28;20185;-69
2022/04/05 05:04:48;;;;;;;12.77;10.30;;;4.50;99.90;;;;;;5066892;28;20188;-69
2022/04/05 05:07:14;;;;;;;12.40;10.13;;;4.50;99.90;;;;;;5078328;28;21028;-69
2022/04/05 05:09:40;;;;;;;10.80;9.17;;;4.50;99.90;;;;;;5069020;28;20814;-68
2022/04/05 05:12:06;;;;;;;11.40;9.73;;;4.50;99.90;;;;;;5062013;28;20431;-69
2022/04/05 05:14:31;;;;;;;16.87;9.97;;;4.50;99.90;;;;;;5067138;28;20176;-68
2022/04/05 05:16:57;;;;;;;14.40;9.70;;;4.50;99.90;;;;;;5069737;28;20212;-68
2022/04/05 05:19:22;;;;;;;12.83;11.37;;;4.50;99.90;;;;;;5065765;28;20632;-69
2022/04/05 05:21:48;;;;;;;11.23;10.13;;;4.50;99.90;;;;;;5064513;28;20216;-69
2022/04/05 05:24:14;;;;;;;10.20;9.20;;;4.50;99.90;;;;;;5068544;28;20193;-69
2022/04/05 05:26:39;;;;;;;11.07;9.77;;;4.50;99.90;;;;;;5068997;28;20211;-69
2022/04/05 05:29:05;;;;;;;14.07;9.40;;;4.60;99.90;;;;;;5061033;28;20207;-68
2022/04/05 05:31:31;;;;;;;13.00;10.33;;;4.60;99.90;;;;;;5071246;28;20264;-69
2022/04/05 05:33:56;;;;;;;11.67;9.40;;;4.60;99.90;;;;;;5065592;28;20193;-69
2022/04/05 05:36:22;;;;;;;10.40;9.20;;;4.60;99.90;;;;;;5073736;28;20197;-68
2022/04/05 05:38:47;;;;;;;10.23;9.13;;;4.60;99.90;;;;;;5069415;28;20245;-69
2022/04/05 05:41:13;;;;;;;10.70;9.60;;;4.60;99.90;;;;;;5072482;28;20267;-68
2022/04/05 05:43:38;;;;;;;11.73;9.60;;;4.60;99.90;;;;;;5068713;28;20189;-68
2022/04/05 05:46:06;;;;;;;10.67;9.23;;;4.60;99.90;;;;;;5067869;28;20600;-68
2022/04/05 05:48:32;;;;;;;10.03;9.00;;;4.60;99.90;;;;;;5070608;28;20188;-69
2022/04/05 05:50:58;;;;;;;13.03;8.50;;;4.60;99.90;;;;;;5071871;28;20533;-69
2022/04/05 05:53:24;;;;;;;10.13;9.13;;;4.60;99.90;;;;;;5072738;28;21010;-69
2022/04/05 05:55:49;;;;;;;10.80;9.57;;;4.60;99.90;;;;;;5072967;28;20229;-68
2022/04/05 05:58:15;;;;;;;12.63;10.23;;;4.60;99.90;;;;;;5062314;28;20184;-69
2022/04/05 06:00:41;;;;;;;17.70;14.50;;;4.60;99.90;;;;;;5072279;28;20541;-68
2022/04/05 06:03:09;;;;;;;12.27;10.00;;;4.60;99.90;;;;;;5071794;28;20261;-68
2022/04/05 06:05:34;;;;;;;19.30;9.37;;;4.60;99.90;;;;;;5071038;28;20208;-68
2022/04/05 06:08:00;;;;;;;11.60;9.97;;;4.60;99.90;;;;;;5065570;28;20435;-68
2022/04/05 06:10:26;;;;;;;13.13;10.20;;;4.60;99.90;;;;;;5070064;28;20529;-70
2022/04/05 06:12:55;;;;;;;12.33;9.57;;;4.60;99.90;;;;;;5055568;28;20177;-68
2022/04/05 06:15:21;;;;;;;16.73;10.40;;;4.50;99.90;;;;;;5028289;28;20188;-68
2022/04/05 06:17:48;;;;;;;12.00;10.27;;;4.50;99.90;;;;;;5067929;28;20836;-68
2022/04/05 06:20:16;;;;;;;12.63;10.07;;;4.50;99.90;;;;;;5069970;28;20305;-66
2022/04/05 06:23:02;;;;;;;14.40;10.50;;;4.50;99.90;;;;;;5062493;28;20439;-68
2022/04/05 06:25:30;;;;;;;13.50;11.60;;;4.50;99.90;;;;;;5064437;28;20471;-67
2022/04/05 06:28:01;;;;;;;14.17;11.70;;;4.50;99.90;;;;;;5065020;28;20583;-69
2022/04/05 06:30:27;;;;;;;12.23;10.37;;;4.50;99.90;;;;;;5065888;28;20431;-69
2022/04/05 06:33:12;;;;;;;12.20;9.53;;;4.60;99.90;;;;;;5062797;28;20442;-70
2022/04/05 06:35:47;;;;;;;12.20;10.00;;;4.60;99.90;;;;;;5063282;28;20957;-69
2022/04/05 06:38:13;;;;;;;11.97;9.57;;;4.60;99.90;;;;;;5063557;28;20439;-66
2022/04/05 06:40:41;;;;;;;11.87;10.60;;;4.60;99.90;;;;;;5070640;28;20459;-69
2022/04/05 06:43:07;;;;;;;12.47;10.70;;;4.60;99.90;;;;;;5061305;28;20446;-69
2022/04/05 06:45:33;;;;;;;13.17;10.83;;;4.70;99.90;;;;;;5068968;28;20470;-69
2022/04/05 06:47:58;;;;;;;13.37;11.30;;;4.70;99.90;;;;;;5070648;28;20185;-68
2022/04/05 06:50:24;;;;;;;11.83;9.63;;;4.70;99.90;;;;;;5067373;28;20801;-68
2022/04/05 06:52:52;;;;;;;11.30;10.10;;;4.70;99.90;;;;;;5062832;28;20169;-68
2022/04/05 06:55:17;;;;;;;12.07;10.13;;;4.80;99.90;;;;;;5056264;28;20439;-69
2022/04/05 06:57:43;;;;;;;12.03;9.30;;;4.80;99.90;;;;;;5060106;28;21013;-69
2022/04/05 07:00:11;;;;;;;12.47;9.87;;;4.80;99.90;;;;;;5061266;28;20275;-69
2022/04/05 07:02:36;;;;;;;12.80;10.33;;;4.90;99.90;;;;;;5054659;28;20193;-70
2022/04/05 07:05:03;;;;;;;9.80;8.80;;;4.90;99.90;;;;;;5058676;28;20439;-68
2022/04/05 07:07:29;;;;;;;9.20;8.30;;;4.90;99.90;;;;;;5056735;28;20289;-69
2022/04/05 07:09:54;;;;;;;9.10;7.70;;;4.90;99.90;;;;;;5055195;28;21020;-68
2022/04/05 07:12:20;;;;;;;11.20;8.83;;;5.00;99.90;;;;;;5059681;28;20177;-67
2022/04/05 07:14:46;;;;;;;13.50;9.33;;;5.10;99.90;;;;;;5057687;28;20533;-68
2022/04/05 07:17:11;;;;;;;9.07;8.20;;;5.10;99.90;;;;;;5059799;28;20561;-69
2022/04/05 07:19:37;;;;;;;11.03;8.73;;;5.10;99.90;;;;;;5062886;28;20851;-69
2022/04/05 07:22:03;;;;;;;9.53;8.60;;;5.20;99.90;;;;;;5059658;28;20231;-70
2022/04/05 07:24:29;;;;;;;12.00;9.10;;;5.20;99.90;;;;;;5048887;28;20186;-66
2022/04/05 07:26:55;;;;;;;10.53;9.40;;;5.20;99.90;;;;;;5054521;28;20462;-68
2022/04/05 07:29:20;;;;;;;10.47;9.37;;;5.20;99.90;;;;;;5058619;28;20185;-69
2022/04/05 07:31:46;;;;;;;14.10;9.93;;;5.30;99.90;;;;;;5056112;28;20621;-69
2022/04/05 07:34:12;;;;;;;10.43;9.33;;;5.30;99.90;;;;;;5054367;28;20203;-68
2022/04/05 07:36:37;;;;;;;8.53;7.63;;;5.30;99.90;;;;;;5055260;28;20205;-69
2022/04/05 07:39:03;;;;;;;11.03;8.37;;;5.40;99.90;;;;;;5063510;28;20180;-68
2022/04/05 07:41:29;;;;;;;9.73;8.73;;;5.40;99.90;;;;;;5058419;28;20208;-68
2022/04/05 07:43:54;;;;;;;8.60;7.80;;;5.50;99.90;;;;;;5053573;28;20234;-71
2022/04/05 07:46:20;;;;;;;10.70;8.73;;;5.50;99.90;;;;;;5055286;28;20213;-68
2022/04/05 07:48:47;;;;;;;9.43;8.40;;;5.60;99.90;;;;;;5069691;28;20185;-71
2022/04/05 07:51:13;;;;;;;11.20;8.00;;;5.70;99.90;;;;;;5057061;28;20938;-70
2022/04/05 07:53:39;;;;;;;9.50;7.73;;;5.80;99.90;;;;;;5056652;28;20608;-68
2022/04/05 07:56:05;;;;;;;8.40;7.40;;;5.80;99.90;;;;;;5062140;28;20566;-70
2022/04/05 07:58:30;;;;;;;9.70;7.97;;;5.90;99.90;;;;;;5061651;28;20267;-71
2022/04/05 08:00:56;;;;;;;10.20;8.17;;;5.90;99.90;;;;;;5059531;28;20594;-68
2022/04/05 08:03:22;;;;;;;11.00;9.07;;;5.90;99.90;;;;;;5054961;28;20188;-69
2022/04/05 08:05:49;;;;;;;11.30;8.27;;;6.00;99.90;;;;;;5057336;28;20246;-71
2022/04/05 08:08:15;;;;;;;9.43;8.50;;;6.10;99.90;;;;;;5057914;28;20947;-70
2022/04/05 08:10:40;;;;;;;9.67;8.77;;;6.20;99.90;;;;;;5057315;28;20579;-69
2022/04/05 08:13:06;;;;;;;12.40;7.93;;;6.20;99.90;;;;;;5063475;28;20472;-68
2022/04/05 08:15:32;;;;;;;10.63;7.50;;;6.30;99.90;;;;;;5064018;28;20628;-67
2022/04/05 08:17:57;;;;;;;8.20;7.40;;;6.30;99.90;;;;;;5055072;28;20190;-70
2022/04/05 08:20:24;;;;;;;8.10;7.30;;;6.40;99.90;;;;;;5054799;28;20264;-70
2022/04/05 08:22:49;;;;;;;9.90;7.80;;;6.40;99.90;;;;;;5060863;28;20191;-70
2022/04/05 08:25:17;;;;;;;8.33;7.40;;;6.40;99.90;;;;;;5062644;28;21020;-69
2022/04/05 08:27:47;;;;;;;13.73;8.17;;;6.40;99.90;;;;;;5063151;28;20573;-69
2022/04/05 08:30:15;;;;;;;8.83;8.00;;;6.40;99.90;;;;;;5056244;28;20805;-69
2022/04/05 08:32:42;;;;;;;9.10;6.90;;;6.40;99.90;;;;;;5051884;28;20500;-68
2022/04/05 08:35:09;;;;;;;8.40;7.60;;;6.50;99.90;;;;;;5054909;28;20436;-69
2022/04/05 08:37:35;;;;;;;7.70;7.00;;;6.50;99.90;;;;;;5056690;28;20454;-71
2022/04/05 08:40:06;;;;;;;8.53;7.57;;;6.50;99.90;;;;;;5051744;28;20494;-68
2022/04/05 08:42:32;;;;;;;9.17;8.27;;;6.50;99.90;;;;;;5052441;28;20458;-69
2022/04/05 08:45:00;;;;;;;10.63;7.80;;;6.50;99.90;;;;;;5056597;28;20438;-68
2022/04/05 08:47:28;;;;;;;8.70;7.03;;;6.60;99.90;;;;;;5053580;28;20744;-69
2022/04/05 08:49:55;;;;;;;8.07;7.37;;;6.70;99.90;;;;;;5057988;28;20450;-68
2022/04/05 08:52:21;;;;;;;8.73;7.33;;;6.80;99.90;;;;;;5059519;28;20473;-67
2022/04/05 08:54:46;;;;;;;9.07;8.13;;;6.90;99.90;;;;;;5057471;28;20739;-69
2022/04/05 08:57:12;;;;;;;7.60;6.90;;;6.90;99.90;;;;;;5057917;28;20224;-68
2022/04/05 08:59:37;;;;;;;9.07;7.87;;;7.00;99.90;;;;;;5054111;28;20616;-69
2022/04/05 09:02:03;;;;;;;14.80;7.97;;;7.20;99.90;;;;;;5059698;28;20185;-69
2022/04/05 09:04:33;;;;;;;9.37;8.33;;;7.40;99.90;;;;;;5057046;28;20184;-69
2022/04/05 09:07:21;;;;;;;10.00;6.87;;;7.50;99.90;;;;;;5060979;28;20478;-69
2022/04/05 09:10:13;;;;;;;11.90;8.37;;;7.80;99.90;;;;;;5052638;28;20431;-70
2022/04/05 09:12:49;;;;;;;7.07;6.37;;;7.90;99.90;;;;;;5045231;28;20443;-69
2022/04/05 09:15:20;;;;;;;8.87;6.87;;;8.00;99.90;;;;;;5060027;28;20447;-69
2022/04/05 09:17:47;;;;;;;7.30;5.83;;;8.10;99.90;;;;;;5056626;28;20431;-68
2022/04/05 09:20:15;;;;;;;6.63;6.03;;;8.20;99.90;;;;;;5059023;28;21728;-69
2022/04/05 09:22:41;;;;;;;7.70;7.00;;;8.20;99.90;;;;;;5057779;28;20492;-71
2022/04/05 09:25:15;;;;;;;6.70;6.10;;;8.30;99.90;;;;;;5061121;28;20952;-69
2022/04/05 09:27:56;;;;;;;6.77;5.93;;;8.20;99.90;;;;;;5055622;28;20533;-68
2022/04/05 09:30:29;;;;;;;7.73;6.93;;;8.20;99.90;;;;;;5058660;28;20467;-69
2022/04/05 09:32:56;;;;;;;6.43;5.80;;;8.20;99.90;;;;;;5060403;28;20949;-66
2022/04/05 09:35:28;;;;;;;6.70;5.97;;;8.20;99.90;;;;;;5056941;28;20478;-67
2022/04/05 09:38:10;;;;;;;8.87;6.77;;;8.20;99.90;;;;;;5057813;28;20445;-70
2022/04/05 09:40:36;;;;;;;5.87;5.30;;;8.10;99.90;;;;;;5059147;28;20942;-68
2022/04/05 09:43:02;;;;;;;6.93;6.20;;;8.10;99.90;;;;;;5055006;28;20434;-69
2022/04/05 09:45:50;;;;;;;7.70;6.70;;;8.00;99.90;;;;;;5050693;28;20478;-70
2022/04/05 09:48:21;;;;;;;8.73;6.37;;;8.00;99.90;;;;;;5068509;28;20178;-69
2022/04/05 09:51:00;;;;;;;6.63;5.77;;;8.00;99.90;;;;;;5056482;28;20432;-70
2022/04/05 09:53:34;;;;;;;6.90;6.30;;;7.90;99.90;;;;;;5057412;28;20933;-68
2022/04/05 09:56:09;;;;;;;8.57;6.83;;;7.90;99.90;;;;;;5054929;28;20682;-68
2022/04/05 09:58:36;;;;;;;5.97;5.37;;;7.90;99.90;;;;;;5058978;28;20448;-69
2022/04/05 10:01:08;;;;;;;6.63;6.00;;;8.00;99.90;;;;;;5054120;28;20505;-68
2022/04/05 10:03:35;;;;;;;6.37;5.73;;;8.00;99.90;;;;;;5061333;28;20806;-69
2022/04/05 10:06:02;;;;;;;14.50;8.60;;;8.00;99.90;;;;;;5065630;28;20560;-67
2022/04/05 10:08:30;;;;;;;6.90;6.27;;;8.00;99.90;;;;;;5057534;28;20451;-66
2022/04/05 10:10:56;;;;;;;7.73;6.77;;;8.00;99.90;;;;;;5062936;28;20988;-67
2022/04/05 10:13:22;;;;;;;7.13;6.40;;;8.10;99.90;;;;;;5060189;28;20462;-68
2022/04/05 10:15:48;;;;;;;8.53;7.73;;;8.20;99.90;;;;;;5069084;28;20473;-67
2022/04/05 10:18:16;;;;;;;8.30;6.30;;;8.20;99.90;;;;;;5063186;28;20607;-63
2022/04/05 10:20:42;;;;;;;6.20;5.60;;;8.20;99.90;;;;;;5061577;28;20443;-65
2022/04/05 10:23:09;;;;;;;7.20;6.50;;;8.20;99.90;;;;;;5062755;28;20441;-66
2022/04/05 10:25:35;;;;;;;7.77;7.00;;;8.10;99.90;;;;;;5064745;28;20200;-66
2022/04/05 10:28:01;;;;;;;8.93;6.83;;;8.10;99.90;;;;;;5065808;28;20439;-67
2022/04/05 10:30:50;;;;;;;10.17;6.50;;;8.20;99.90;;;;;;5059060;28;20508;-68
2022/04/05 10:33:28;;;;;;;5.90;5.33;;;8.20;99.90;;;;;;5062685;28;20550;-66
2022/04/05 10:35:57;;;;;;;6.20;5.47;;;8.20;99.90;;;;;;5063797;28;20554;-65
2022/04/05 10:38:24;;;;;;;8.77;6.60;;;8.30;99.90;;;;;;5062461;28;20443;-65
2022/04/05 10:41:10;;;;;;;7.80;7.10;;;8.20;99.90;;;;;;5068194;28;20442;-68
2022/04/05 10:43:38;;;;;;;7.63;6.87;;;8.20;99.90;;;;;;5061241;28;20450;-68
2022/04/05 10:46:05;;;;;;;9.40;6.73;;;8.20;99.90;;;;;;5055649;28;20471;-70
2022/04/05 10:48:31;;;;;;;7.50;6.80;;;8.20;99.90;;;;;;5063283;28;20440;-69
2022/04/05 10:51:00;;;;;;;7.60;7.00;;;8.30;99.90;;;;;;5061282;28;20816;-67
2022/04/05 10:56:28;;;;;;;6.20;5.60;;;8.40;99.90;;;;;;5058210;28;20474;-67
2022/04/05 10:58:53;;;;;;;7.73;6.50;;;8.40;99.90;;;;;;5067827;28;20880;-67
2022/04/05 11:01:23;;;;;;;7.87;6.27;;;8.50;99.90;;;;;;5064669;28;20467;-69
2022/04/05 11:04:20;;;;;;;5.87;5.27;;;8.60;99.90;;;;;;5063337;28;20262;-69
2022/04/05 11:07:05;;;;;;;6.17;5.67;;;8.70;99.90;;;;;;5068606;28;20900;-67
2022/04/05 11:09:32;;;;;;;7.13;5.00;;;8.70;99.90;;;;;;5056641;28;20890;-69
2022/04/05 11:12:16;;;;;;;4.93;4.50;;;8.80;99.90;;;;;;5055494;28;20517;-68
2022/04/05 11:14:56;;;;;;;7.97;6.50;;;8.90;99.90;;;;;;5061510;28;20466;-68
2022/04/05 11:17:25;;;;;;;5.23;4.73;;;9.20;99.90;;;;;;5050847;28;20548;-68
2022/04/05 11:19:53;;;;;;;7.60;4.60;;;9.40;99.90;;;;;;5059463;28;20811;-68
2022/04/05 11:22:25;;;;;;;6.20;5.20;;;9.70;99.90;;;;;;5058003;28;20905;-67
2022/04/05 11:24:51;;;;;;;4.50;4.07;;;9.90;99.90;;;;;;5068147;28;20499;-68
2022/04/05 11:27:33;;;;;;;5.77;5.10;;;10.20;99.90;;;;;;5057883;28;20499;-67
2022/04/05 11:30:37;;;;;;;6.37;4.80;;;10.50;99.90;;;;;;5058372;28;20435;-66
2022/04/05 11:33:14;;;;;;;4.70;4.13;;;10.40;99.90;;;;;;5057772;28;21668;-68
2022/04/05 11:35:42;;;;;;;4.93;4.20;;;10.50;99.90;;;;;;5063671;28;20465;-69
2022/04/05 11:38:26;;;;;;;4.90;4.27;;;10.70;99.90;;;;;;5064768;28;20474;-69
2022/04/05 11:40:54;;;;;;;5.33;4.93;;;10.90;99.90;;;;;;5061898;28;20518;-68
2022/04/05 11:43:24;;;;;;;4.40;4.00;;;11.20;99.90;;;;;;5057073;28;20444;-68
2022/04/05 11:45:52;;;;;;;5.47;4.97;;;11.30;99.90;;;;;;5063677;28;21013;-68
2022/04/05 11:48:20;;;;;;;5.10;4.67;;;10.90;99.90;;;;;;5059202;28;20462;-69
2022/04/05 11:50:46;;;;;;;6.17;4.83;;;10.80;99.90;;;;;;5058083;28;20440;-67
2022/04/05 11:53:21;;;;;;;5.50;5.10;;;10.80;99.90;;;;;;5060208;28;20439;-68
2022/04/05 11:56:09;;;;;;;5.20;3.83;;;10.80;99.90;;;;;;5062682;28;20477;-69
2022/04/05 11:58:38;;;;;;;4.30;4.00;;;11.00;99.90;;;;;;5058817;28;20438;-69
2022/04/05 12:01:06;;;;;;;4.70;4.30;;;11.70;99.90;;;;;;5057208;28;20434;-68
2022/04/05 12:03:47;;;;;;;4.20;3.80;;;12.40;99.90;;;;;;5056290;28;20443;-65
2022/04/05 12:06:17;;;;;;;4.10;3.70;;;12.80;99.90;;;;;;5065436;28;20615;-68
2022/04/05 12:08:43;;;;;;;5.33;3.73;;;12.60;99.90;;;;;;5058918;28;20458;-68
2022/04/05 12:11:09;;;;;;;4.23;3.33;;;12.80;99.90;;;;;;5056268;28;20931;-68
2022/04/05 12:13:35;;;;;;;5.07;4.13;;;13.70;99.90;;;;;;5059288;28;20787;-69
2022/04/05 12:16:03;;;;;;;3.90;3.60;;;14.00;99.90;;;;;;5065902;28;20980;-69
2022/04/05 12:18:30;;;;;;;4.50;4.10;;;13.80;99.90;;;;;;5065125;28;20988;-69
2022/04/05 12:21:04;;;;;;;4.70;4.30;;;14.20;99.90;;;;;;5067240;28;20435;-69
2022/04/05 12:23:31;;;;;;;4.97;4.43;;;14.30;99.90;;;;;;5061987;28;20458;-69
2022/04/05 12:26:15;;;;;;;4.47;4.17;;;14.30;99.90;;;;;;5062318;28;20557;-68
2022/04/05 12:28:47;;;;;;;4.10;3.70;;;14.60;99.90;;;;;;5052488;28;20521;-69
2022/04/05 12:31:15;;;;;;;5.13;4.50;;;14.70;99.90;;;;;;5057113;28;20458;-68
2022/04/05 12:33:52;;;;;;;5.00;4.53;;;14.70;99.90;;;;;;5061188;28;20431;-69
2022/04/05 12:36:19;;;;;;;4.80;4.40;;;13.70;99.90;;;;;;5065394;28;20450;-68
2022/04/05 12:38:45;;;;;;;4.97;4.07;;;12.80;99.90;;;;;;5064509;28;21060;-68
2022/04/05 12:41:14;;;;;;;4.90;4.40;;;11.90;99.90;;;;;;5059640;28;20435;-69
2022/04/05 12:43:40;;;;;;;4.97;4.47;;;11.40;99.90;;;;;;5055206;28;20181;-69
2022/04/05 12:46:12;;;;;;;4.50;4.10;;;11.10;99.90;;;;;;5066298;28;20520;-68
2022/04/05 12:48:39;;;;;;;6.30;4.60;;;10.90;99.90;;;;;;5058524;28;20454;-68
2022/04/05 12:51:05;;;;;;;6.10;5.10;;;10.80;99.90;;;;;;5060948;28;20527;-69
2022/04/05 12:53:38;;;;;;;4.10;3.83;;;10.90;99.90;;;;;;5057779;28;20439;-67
2022/04/05 12:56:08;;;;;;;4.50;4.10;;;10.90;99.90;;;;;;5062845;28;20489;-68
2022/04/05 12:58:46;;;;;;;5.17;4.77;;;11.00;99.90;;;;;;5063450;28;20469;-68